Allendale, Illinois
Current Conditions -  °F | °C
As of 10:15 AM on Thursday 29 Jan 2015 (Local Time) from KAJG Reporting Station
Overcast Overcast  
Wind Chill: 35°   Ceiling: 1600
Heat Index: 43°   Visibility: 10mi
Dew Point: 34°   Wind: 17mph
Humidity: 70%   Direction: 300°WNW
Pressure: 30.01"   Gusts: 28mph
Location:  38.53°N, 87.71°W
Report Text: KAJG 291615Z AUTO 30015G24KT 10SM OVC016 06/01 A3001 RMK AO2
Loading
Personal Weather Stations






























Interactive Weather Map New forecast layout! Learn more

10-Day Weather Forecast

Advertisements
Track Severe Weather on mobile